createdAt,value
2019-02-17T00:07:54.874Z,23
2019-02-17T00:17:54.084Z,23.4
2019-02-17T00:27:53.341Z,23.4
2019-02-17T00:37:52.497Z,24.9
2019-02-17T00:47:51.704Z,24.4
2019-02-17T00:57:50.911Z,22.8
2019-02-17T01:07:50.173Z,23
2019-02-17T01:17:49.335Z,23.3
2019-02-17T01:27:48.547Z,23.5
2019-02-17T01:37:47.761Z,24.9
2019-02-17T01:47:46.973Z,24.8
2019-02-17T01:57:46.182Z,24.3
2019-02-17T02:07:45.393Z,23.4
2019-02-17T02:17:44.600Z,22.8
2019-02-17T02:27:43.813Z,22.9
2019-02-17T02:37:43.016Z,23
2019-02-17T02:47:42.225Z,22.9
2019-02-17T02:57:41.431Z,23.1
2019-02-17T03:07:40.637Z,23.6
2019-02-17T03:17:39.845Z,24.9
2019-02-17T03:27:39.049Z,24.8
2019-02-17T03:37:38.256Z,24.2
2019-02-17T03:47:37.466Z,22.6
2019-02-17T03:57:36.670Z,23.1
2019-02-17T04:07:35.874Z,23.4
2019-02-17T04:17:35.082Z,23.4
2019-02-17T04:27:34.291Z,24.4
2019-02-17T04:37:33.492Z,24.3
2019-02-17T04:47:32.692Z,22.6
2019-02-17T04:57:31.898Z,22.7
2019-02-17T05:07:31.102Z,23.2
2019-02-17T05:17:30.308Z,23.4
2019-02-17T05:27:29.510Z,23.6
2019-02-17T05:37:28.716Z,23.6
2019-02-17T05:47:27.970Z,23.6
2019-02-17T05:57:27.123Z,23.6
2019-02-17T06:07:26.327Z,23.7
2019-02-17T06:15:33.758Z,24.6
2019-02-17T06:25:32.959Z,24.7
2019-02-17T06:35:32.164Z,24.3
2019-02-17T06:45:31.366Z,23.6
2019-02-17T06:55:30.569Z,23.2
2019-02-17T07:05:29.774Z,23.8
2019-02-17T07:15:28.992Z,24.8
2019-02-17T07:25:30.213Z,24.9
2019-02-17T07:35:27.597Z,25.1
2019-02-17T07:45:26.870Z,25.3
2019-02-17T07:55:26.160Z,25.3
2019-02-17T08:05:25.453Z,25.3
2019-02-17T08:15:24.706Z,25.4
2019-02-17T08:25:23.911Z,25.4
2019-02-17T08:35:23.117Z,25.7
2019-02-17T08:45:22.327Z,25.4
2019-02-17T08:55:21.539Z,25
2019-02-17T09:05:20.763Z,25.4
2019-02-17T09:15:19.966Z,25.8
2019-02-17T09:25:19.224Z,25.7
2019-02-17T09:35:18.384Z,25.6
2019-02-17T09:45:17.595Z,25.7
2019-02-17T09:55:16.853Z,25.5
2019-02-17T10:05:16.013Z,25.7
2019-02-17T10:15:15.273Z,25.4
2019-02-17T10:25:14.433Z,25.5
2019-02-17T10:35:13.643Z,25.3
2019-02-17T10:45:12.857Z,25.4
2019-02-17T10:55:12.070Z,25.1
2019-02-17T11:05:11.278Z,25.1
2019-02-17T11:15:10.493Z,24.9
2019-02-17T11:25:09.704Z,24.9
2019-02-17T11:35:08.914Z,25
2019-02-17T11:45:08.125Z,24.9
2019-02-17T11:55:07.337Z,25.5
2019-02-17T12:05:06.554Z,25.6
2019-02-17T12:15:05.757Z,25
2019-02-17T12:25:04.966Z,24.5
2019-02-17T12:35:04.181Z,24.6
2019-02-17T12:45:03.383Z,24.6
2019-02-17T12:55:02.589Z,24.6
2019-02-17T13:05:01.795Z,24.4
2019-02-17T13:15:01.009Z,24.9
2019-02-17T13:25:00.295Z,24.5
2019-02-17T13:34:59.412Z,24.4
2019-02-17T13:44:58.619Z,24.5
2019-02-17T13:54:57.873Z,24.7
2019-02-17T14:01:12.430Z,24.8
2019-02-17T14:11:11.690Z,24.6
2019-02-17T14:21:10.846Z,24.8
2019-02-17T14:31:10.055Z,24.6
2019-02-17T14:41:09.266Z,24.8
2019-02-17T14:51:08.473Z,24.8
2019-02-17T15:01:07.682Z,24.6
2019-02-17T15:11:06.968Z,24.3
2019-02-17T15:21:06.263Z,23.4
2019-02-17T15:31:05.559Z,24.3
2019-02-17T15:41:04.904Z,24.9
2019-02-17T15:51:06.384Z,24.9
2019-02-17T16:01:03.410Z,24.6
2019-02-17T16:06:16.314Z,24.2
2019-02-17T16:16:15.582Z,23.1
2019-02-17T16:26:14.737Z,23.3
2019-02-17T16:36:13.945Z,23.6
2019-02-17T16:46:13.156Z,24.3
2019-02-17T16:56:12.363Z,24.8
2019-02-17T17:06:11.580Z,24.6
2019-02-17T17:16:10.875Z,24.1
2019-02-17T17:26:10.198Z,23
2019-02-17T17:36:09.514Z,23.4
2019-02-17T17:46:08.760Z,24.1
2019-02-17T17:56:08.059Z,24.6
2019-02-17T18:06:07.370Z,24.3
2019-02-17T18:16:06.538Z,23.9
2019-02-17T18:26:05.752Z,23.9
2019-02-17T18:36:04.964Z,24
2019-02-17T18:44:56.089Z,23.9
2019-02-17T18:54:55.250Z,22.9
2019-02-17T19:04:54.467Z,23
2019-02-17T19:14:53.706Z,23.1
2019-02-17T19:24:52.894Z,23.6
2019-02-17T19:34:52.102Z,24.7
2019-02-17T19:44:51.372Z,25
2019-02-17T19:54:50.616Z,24.7
2019-02-17T20:04:49.962Z,24.2
2019-02-17T20:14:49.233Z,22.8
2019-02-17T20:24:48.499Z,23.3
2019-02-17T20:34:47.839Z,23.4
2019-02-17T20:44:47.042Z,23.9
2019-02-17T20:54:46.332Z,24.9
2019-02-17T21:04:45.455Z,25.3
2019-02-17T21:14:44.743Z,24.4
2019-02-17T21:24:43.870Z,24
2019-02-17T21:34:43.077Z,22.9
2019-02-17T21:44:42.284Z,23
2019-02-17T21:54:41.492Z,23.1
2019-02-17T22:04:40.702Z,23.3
2019-02-17T22:14:39.905Z,24
2019-02-17T22:24:39.113Z,24.6
2019-02-17T22:34:38.323Z,24.3
2019-02-17T22:44:37.526Z,24.1
2019-02-17T22:54:36.733Z,22.9
2019-02-17T23:04:35.939Z,23
2019-02-17T23:14:35.144Z,23.2
2019-02-17T23:24:34.350Z,23.3
2019-02-17T23:34:33.555Z,23.5
2019-02-17T23:44:32.766Z,23.7
2019-02-17T23:54:31.968Z,23.6
